Terminal Aerodrome Forecast
Issued by NWS

Home | Current Version | Previous Version | Text Only | Print | Product List | Glossary Off
Versions: 1 2 3 4 5 6 7 8 9 10 11 12

000
FTUS43 KTOP 300520
TAFMHK
TAF
KMHK 300520Z 3006/3106 VRB03KT P6SM SCT090
     FM301600 16005KT P6SM FEW100
     FM310100 VRB03KT P6SM SKC=

USA.gov is the U.S. government's official web portal to all federal, state and local government web resources and services.